Time;durP1;ratioP1;P1;durP2;ratioP2;P2;SDS_P1;SDS_P2;PMS_P1;PMS_P2;Temp;Humidity;BMP_temperature;BMP_pressure;BME280_temperature;BME280_humidity;BME280_pressure;Samples;Min_cycle;Max_cycle;Signal;HPM_P1;HPM_P2
2023/08/27 00:00:56;;;;;;;;;;;;;;;17.93;45.10;100566.09;5070623;28;1070;-57
2023/08/27 00:03:22;;;;;;;;;;;;;;;17.69;45.20;100567.94;5074938;28;1050;-57
2023/08/27 00:05:47;;;;;;;;;;;;;;;17.68;44.83;100564.34;5075234;28;1062;-60
2023/08/27 00:08:13;;;;;;;;;;;;;;;17.64;44.80;100566.03;5066550;28;1158;-58
2023/08/27 00:10:39;;;;;;;;;;;;;;;17.64;44.11;100557.78;5068588;28;1910;-59
2023/08/27 00:13:04;;;;;;;;;;;;;;;17.56;44.48;100556.47;5055555;28;1127;-59
2023/08/27 00:15:30;;;;;;;;;;;;;;;17.61;43.91;100558.34;5061582;28;1171;-62
2023/08/27 00:17:55;;;;;;;;;;;;;;;17.53;44.04;100564.47;5069972;28;1039;-59
2023/08/27 00:20:21;;;;;;;;;;;;;;;17.58;44.09;100554.25;5072465;28;1091;-58
2023/08/27 00:22:46;;;;;;;;;;;;;;;17.57;44.10;100560.03;5067090;28;1118;-60
2023/08/27 00:25:12;;;;;;;;;;;;;;;17.51;44.02;100555.69;5065168;28;1114;-61
2023/08/27 00:27:38;;;;;;;;;;;;;;;17.48;44.18;100554.31;5075054;28;1090;-59
2023/08/27 00:30:04;;;;;;;;;;;;;;;17.48;43.83;100553.50;5071214;28;1115;-60
2023/08/27 00:32:31;;;;;;;;;;;;;;;17.45;43.86;100557.66;5058308;28;1980;-60
2023/08/27 00:34:57;;;;;;;;;;;;;;;17.50;43.75;100557.63;5048239;28;1218;-60
2023/08/27 00:37:22;;;;;;;;;;;;;;;17.39;44.05;100562.34;5059423;28;1299;-60
2023/08/27 00:39:48;;;;;;;;;;;;;;;17.51;43.58;100547.44;5047744;28;1135;-60
2023/08/27 00:42:13;;;;;;;;;;;;;;;17.43;43.84;100554.34;5078276;28;1066;-60
2023/08/27 00:44:39;;;;;;;;;;;;;;;17.54;44.45;100560.59;5060173;28;1624;-58
2023/08/27 00:47:04;;;;;;;;;;;;;;;18.19;45.25;100567.81;5071026;28;1110;-57
2023/08/27 00:49:30;;;;;;;;;;;;;;;17.88;45.65;100552.38;5052945;28;1165;-57
2023/08/27 00:51:56;;;;;;;;;;;;;;;17.71;45.44;100554.72;5046693;28;1925;-57
2023/08/27 00:54:21;;;;;;;;;;;;;;;17.68;44.99;100558.03;5045779;28;2799;-57
2023/08/27 00:56:47;;;;;;;;;;;;;;;17.58;44.88;100556.19;5043146;28;1216;-58
2023/08/27 00:59:13;;;;;;;;;;;;;;;17.61;44.37;100558.34;5046540;28;1290;-57
2023/08/27 01:01:42;;;;;;;;;;;;;;;17.60;44.45;100556.72;5046915;28;972;-58
2023/08/27 01:04:07;;;;;;;;;;;;;;;17.50;44.29;100554.88;5053034;28;1103;-57
2023/08/27 01:06:34;;;;;;;;;;;;;;;17.57;44.02;100557.28;5059189;28;1213;-58
2023/08/27 01:09:21;;;;;;;;;;;;;;;17.57;44.13;100543.53;5063718;28;992;-57
2023/08/27 01:11:52;;;;;;;;;;;;;;;17.51;44.04;100541.94;5067622;28;1913;-58
2023/08/27 01:14:18;;;;;;;;;;;;;;;17.53;43.87;100542.47;5064151;28;1131;-58
2023/08/27 01:16:44;;;;;;;;;;;;;;;17.47;43.98;100543.63;5048313;28;1150;-58
2023/08/27 01:19:13;;;;;;;;;;;;;;;17.50;44.04;100552.13;5057298;28;1305;-57
2023/08/27 01:21:39;;;;;;;;;;;;;;;17.49;43.91;100555.13;5058994;28;1199;-57
2023/08/27 01:24:05;;;;;;;;;;;;;;;17.47;43.80;100562.84;5046437;28;2255;-57
2023/08/27 01:26:37;;;;;;;;;;;;;;;17.79;44.30;100563.19;5059282;28;1539;-57
2023/08/27 01:29:13;;;;;;;;;;;;;;;18.00;44.96;100565.78;5039394;28;1380;-57
2023/08/27 01:31:39;;;;;;;;;;;;;;;17.69;45.47;100566.00;5039293;28;1979;-57
2023/08/27 01:34:05;;;;;;;;;;;;;;;17.64;44.86;100563.28;5070619;28;988;-57
2023/08/27 01:36:34;;;;;;;;;;;;;;;17.67;44.35;100557.22;5046403;28;1302;-57
2023/08/27 01:39:00;;;;;;;;;;;;;;;17.64;44.33;100565.22;5045472;28;1134;-57
2023/08/27 01:41:25;;;;;;;;;;;;;;;17.57;44.29;100565.53;5068592;28;852;-57
2023/08/27 01:43:51;;;;;;;;;;;;;;;17.49;44.35;100560.63;5071486;28;1116;-57
2023/08/27 01:46:17;;;;;;;;;;;;;;;17.59;43.78;100555.09;5076969;28;1098;-57
2023/08/27 01:48:42;;;;;;;;;;;;;;;17.51;44.04;100553.75;5057075;28;1007;-57
2023/08/27 01:51:07;;;;;;;;;;;;;;;17.47;43.79;100547.19;5056581;28;1918;-57
2023/08/27 01:53:33;;;;;;;;;;;;;;;17.53;43.52;100553.47;5064018;28;1856;-57
2023/08/27 01:55:59;;;;;;;;;;;;;;;17.52;43.76;100549.91;5046802;28;1514;-57
2023/08/27 01:58:24;;;;;;;;;;;;;;;17.47;43.81;100558.16;5044951;28;1194;-57
2023/08/27 02:00:50;;;;;;;;;;;;;;;17.41;43.97;100556.56;5050888;28;1062;-58
2023/08/27 02:03:15;;;;;;;;;;;;;;;17.47;43.58;100554.59;5039790;28;1182;-58
2023/08/27 02:05:41;;;;;;;;;;;;;;;17.45;43.52;100555.72;5076163;28;953;-57
2023/08/27 02:08:06;;;;;;;;;;;;;;;17.41;43.75;100559.31;5062426;28;1075;-57
2023/08/27 02:10:33;;;;;;;;;;;;;;;17.46;43.75;100551.06;5045944;28;1984;-57
2023/08/27 02:12:58;;;;;;;;;;;;;;;18.00;44.28;100549.28;5044407;28;1201;-58
2023/08/27 02:15:24;;;;;;;;;;;;;;;17.87;45.43;100550.75;5046419;28;1178;-58
2023/08/27 02:17:49;;;;;;;;;;;;;;;17.74;44.88;100548.63;5075654;28;840;-58
2023/08/27 02:20:15;;;;;;;;;;;;;;;17.65;44.72;100547.63;5068294;28;1094;-59
2023/08/27 02:22:40;;;;;;;;;;;;;;;17.57;44.38;100557.28;5056606;28;2362;-58
2023/08/27 02:25:07;;;;;;;;;;;;;;;17.61;44.25;100552.84;5051029;28;2043;-59
2023/08/27 02:27:32;;;;;;;;;;;;;;;17.53;44.11;100550.72;5052078;28;1096;-58
2023/08/27 02:29:58;;;;;;;;;;;;;;;17.47;44.19;100549.13;5041198;28;1115;-58
2023/08/27 02:32:24;;;;;;;;;;;;;;;17.49;43.96;100555.97;5069176;28;1980;-57
2023/08/27 02:34:49;;;;;;;;;;;;;;;17.44;43.69;100559.56;5038006;28;1286;-58
2023/08/27 02:37:15;;;;;;;;;;;;;;;17.43;44.02;100568.94;5050935;28;1218;-58
2023/08/27 02:39:40;;;;;;;;;;;;;;;17.49;43.56;100566.97;5076392;28;1313;-58
2023/08/27 02:42:06;;;;;;;;;;;;;;;17.44;43.87;100564.25;5075250;28;935;-58
2023/08/27 02:44:31;;;;;;;;;;;;;;;17.40;43.74;100566.75;5062836;28;999;-58
2023/08/27 02:46:57;;;;;;;;;;;;;;;17.40;43.43;100564.00;5057940;28;1076;-57
2023/08/27 02:49:23;;;;;;;;;;;;;;;17.37;43.54;100575.53;5044280;28;1104;-58
2023/08/27 02:51:48;;;;;;;;;;;;;;;17.39;43.50;100567.00;5057229;28;1913;-57
2023/08/27 02:54:14;;;;;;;;;;;;;;;17.34;43.50;100562.38;5057506;28;2373;-58
2023/08/27 02:56:39;;;;;;;;;;;;;;;18.09;44.78;100563.22;5062951;28;992;-58
2023/08/27 02:59:05;;;;;;;;;;;;;;;17.75;44.86;100558.53;5043926;28;1238;-58
2023/08/27 03:01:30;;;;;;;;;;;;;;;17.64;44.70;100557.78;5044905;28;1267;-58
2023/08/27 03:03:56;;;;;;;;;;;;;;;17.51;44.45;100550.19;5057127;28;1214;-58
2023/08/27 03:06:21;;;;;;;;;;;;;;;17.44;44.59;100554.06;5075336;28;824;-58
2023/08/27 03:08:47;;;;;;;;;;;;;;;17.49;43.93;100552.38;5057498;28;1079;-58
2023/08/27 03:11:12;;;;;;;;;;;;;;;17.44;44.19;100554.06;5057842;28;1910;-58
2023/08/27 03:13:38;;;;;;;;;;;;;;;17.49;43.76;100552.38;5044447;28;1145;-58
2023/08/27 03:16:04;;;;;;;;;;;;;;;17.52;43.58;100554.59;5063589;28;1146;-62
2023/08/27 03:18:29;;;;;;;;;;;;;;;17.43;43.87;100552.44;5074381;28;1056;-61
2023/08/27 03:20:55;;;;;;;;;;;;;;;17.41;43.87;100560.13;5045199;28;1220;-60
2023/08/27 03:23:21;;;;;;;;;;;;;;;17.41;43.68;100564.81;5074500;28;2315;-60
2023/08/27 03:25:48;;;;;;;;;;;;;;;17.49;43.72;100566.13;5045021;28;1197;-58
2023/08/27 03:28:13;;;;;;;;;;;;;;;18.03;44.95;100559.69;5037452;28;1203;-57
2023/08/27 03:30:40;;;;;;;;;;;;;;;17.71;45.33;100551.97;5055972;28;1976;-58
2023/08/27 03:33:06;;;;;;;;;;;;;;;17.59;44.98;100555.91;5055947;28;1115;-58
2023/08/27 03:35:32;;;;;;;;;;;;;;;17.51;44.61;100547.44;5037384;28;1215;-59
2023/08/27 03:37:57;;;;;;;;;;;;;;;17.51;44.30;100555.69;5056161;28;1520;-60
2023/08/27 03:40:23;;;;;;;;;;;;;;;17.52;44.46;100560.09;5057300;28;2337;-60
2023/08/27 03:42:48;;;;;;;;;;;;;;;17.53;44.15;100550.72;5068982;28;1153;-60
2023/08/27 03:45:14;;;;;;;;;;;;;;;17.48;44.17;100553.50;5055550;28;1103;-60
2023/08/27 03:47:39;;;;;;;;;;;;;;;17.51;43.90;100553.75;5069024;28;1121;-61
2023/08/27 03:50:05;;;;;;;;;;;;;;;17.49;43.66;100546.88;5056317;28;1268;-64
2023/08/27 03:52:31;;;;;;;;;;;;;;;17.42;43.91;100556.28;5071868;28;1910;-59
2023/08/27 03:54:56;;;;;;;;;;;;;;;17.48;43.84;100553.50;5025201;28;1142;-57
2023/08/27 03:57:22;;;;;;;;;;;;;;;17.50;43.73;100556.78;5054988;28;1218;-58
2023/08/27 03:59:47;;;;;;;;;;;;;;;18.52;44.68;100549.59;5071919;28;1043;-59
2023/08/27 04:02:14;;;;;;;;;;;;;;;17.84;45.90;100554.06;5073211;28;1109;-58
2023/08/27 04:04:40;;;;;;;;;;;;;;;17.67;45.51;100546.22;5041201;28;1301;-58
2023/08/27 04:07:05;;;;;;;;;;;;;;;17.70;44.84;100547.59;5055211;28;1100;-59
2023/08/27 04:09:31;;;;;;;;;;;;;;;17.58;44.83;100540.50;5049128;28;2388;-59
2023/08/27 04:11:56;;;;;;;;;;;;;;;17.63;44.59;100542.41;5060409;28;2049;-58
2023/08/27 04:14:22;;;;;;;;;;;;;;;17.57;44.60;100541.63;5056421;28;1936;-59
2023/08/27 04:16:47;;;;;;;;;;;;;;;17.56;44.07;100542.72;5058574;28;1792;-59
2023/08/27 04:19:13;;;;;;;;;;;;;;;17.57;44.04;100549.03;5073264;28;1896;-58
2023/08/27 04:21:39;;;;;;;;;;;;;;;17.44;44.08;100554.06;5056424;28;1959;-59
2023/08/27 04:24:05;;;;;;;;;;;;;;;18.62;45.30;100549.50;5076889;28;1847;-60
2023/08/27 04:26:31;;;;;;;;;;;;;;;18.00;46.15;100549.28;5053327;28;1327;-59
2023/08/27 04:28:56;;;;;;;;;;;;;;;17.84;45.73;100550.47;5056863;28;1241;-59
2023/08/27 04:31:22;;;;;;;;;;;;;;;17.79;45.31;100549.44;5057659;28;1898;-59
2023/08/27 04:33:47;;;;;;;;;;;;;;;17.76;44.84;100555.50;5040100;28;1321;-59
2023/08/27 04:36:13;;;;;;;;;;;;;;;17.75;44.78;100556.63;5056591;28;1237;-60
2023/08/27 04:38:38;;;;;;;;;;;;;;;17.72;44.38;100553.59;5057715;28;1143;-59
2023/08/27 04:41:04;;;;;;;;;;;;;;;17.74;44.35;100556.88;5058280;28;1206;-58
2023/08/27 04:43:29;;;;;;;;;;;;;;;17.94;44.40;100555.94;5060960;28;1221;-60
2023/08/27 04:45:55;;;;;;;;;;;;;;;18.81;43.69;100552.28;5057726;28;1257;-59
2023/08/27 04:48:20;;;;;;;;;;;;;;;18.39;45.23;100553.84;5058194;28;1241;-58
2023/08/27 04:50:46;;;;;;;;;;;;;;;18.32;45.64;100555.31;5071543;28;1973;-57
2023/08/27 04:53:12;;;;;;;;;;;;;;;18.13;46.13;100543.13;5056663;28;1249;-58
2023/08/27 04:55:38;;;;;;;;;;;;;;;18.11;46.64;100550.00;5060098;28;2314;-59
2023/08/27 04:58:04;;;;;;;;;;;;;;;18.04;46.89;100547.59;5056206;28;1259;-59
2023/08/27 05:00:29;;;;;;;;;;;;;;;17.99;47.38;100541.31;5055599;28;1226;-58
2023/08/27 05:02:55;;;;;;;;;;;;;;;17.89;47.60;100550.44;5056244;28;1292;-59
2023/08/27 05:05:20;;;;;;;;;;;;;;;17.90;47.74;100538.34;5050859;28;1186;-58
2023/08/27 05:07:47;;;;;;;;;;;;;;;17.81;48.28;100538.16;5059069;28;2292;-58
2023/08/27 05:10:12;;;;;;;;;;;;;;;17.79;48.44;100538.44;5059319;28;1234;-58
2023/08/27 05:12:38;;;;;;;;;;;;;;;17.73;48.70;100542.31;5058911;28;1918;-59
2023/08/27 05:15:06;;;;;;;;;;;;;;;17.76;48.78;100543.69;5059070;28;1398;-59
2023/08/27 05:17:32;;;;;;;;;;;;;;;17.77;48.94;100546.13;5056524;28;1218;-59
2023/08/27 05:19:57;;;;;;;;;;;;;;;17.76;49.14;100539.00;5059870;28;1353;-59
2023/08/27 05:22:23;;;;;;;;;;;;;;;17.65;49.50;100551.19;5055859;28;1441;-58
2023/08/27 05:24:49;;;;;;;;;;;;;;;17.66;49.65;100557.53;5053006;28;1876;-58
2023/08/27 05:27:14;;;;;;;;;;;;;;;17.64;49.83;100562.47;5057003;28;1162;-58
2023/08/27 05:29:40;;;;;;;;;;;;;;;17.57;50.01;100562.78;5070681;28;1245;-58
2023/08/27 05:32:06;;;;;;;;;;;;;;;17.62;49.84;100560.00;5057889;28;1910;-57
2023/08/27 05:34:31;;;;;;;;;;;;;;;17.56;50.12;100561.16;5056845;28;1260;-59
2023/08/27 05:36:57;;;;;;;;;;;;;;;17.47;50.57;100558.16;5055144;28;1258;-58
2023/08/27 05:39:23;;;;;;;;;;;;;;;17.56;50.45;100559.22;5057108;28;1241;-58
2023/08/27 05:41:49;;;;;;;;;;;;;;;17.46;50.57;100559.31;5059106;28;1131;-58
2023/08/27 05:44:14;;;;;;;;;;;;;;;17.55;50.44;100567.75;5058286;28;1219;-57
2023/08/27 05:46:40;;;;;;;;;;;;;;;17.47;50.94;100557.34;5055106;28;1281;-58
2023/08/27 05:49:05;;;;;;;;;;;;;;;17.47;50.87;100568.34;5055283;28;1292;-57
2023/08/27 05:51:32;;;;;;;;;;;;;;;17.51;51.03;100558.44;5055092;28;1917;-58
2023/08/27 05:53:58;;;;;;;;;;;;;;;17.47;51.33;100568.34;5057866;28;1769;-57
2023/08/27 05:56:26;;;;;;;;;;;;;;;17.49;51.14;100572.47;5055549;28;1194;-58
2023/08/27 05:58:52;;;;;;;;;;;;;;;17.44;51.30;100569.75;5054924;28;1321;-58
2023/08/27 06:01:18;;;;;;;;;;;;;;;17.45;51.36;100579.63;5054757;28;1458;-57
2023/08/27 06:03:44;;;;;;;;;;;;;;;17.39;51.71;100573.34;5056681;28;1233;-58
2023/08/27 06:06:09;;;;;;;;;;;;;;;17.41;51.68;100568.38;5058410;28;1179;-58
2023/08/27 06:08:36;;;;;;;;;;;;;;;17.42;51.71;100572.78;5055333;28;1474;-57
2023/08/27 06:11:04;;;;;;;;;;;;;;;17.42;51.71;100570.03;5054554;28;1988;-58
2023/08/27 06:13:30;;;;;;;;;;;;;;;17.43;51.88;100568.09;5053964;28;1265;-57
2023/08/27 06:15:56;;;;;;;;;;;;;;;17.37;52.01;100561.00;5054769;28;1174;-58
2023/08/27 06:18:22;;;;;;;;;;;;;;;17.37;51.96;100563.75;5057188;28;1229;-58
2023/08/27 06:20:48;;;;;;;;;;;;;;;17.34;52.16;100567.88;5054801;28;1292;-57
2023/08/27 06:23:14;;;;;;;;;;;;;;;17.41;52.30;100565.63;5056043;28;1190;-57
2023/08/27 06:25:40;;;;;;;;;;;;;;;17.42;52.22;100570.03;5053494;28;2378;-58
2023/08/27 06:28:05;;;;;;;;;;;;;;;17.34;52.53;100565.13;5057279;28;1430;-57
2023/08/27 06:30:31;;;;;;;;;;;;;;;17.36;52.54;100565.69;5054506;28;1214;-59
2023/08/27 06:32:59;;;;;;;;;;;;;;;17.32;52.43;100566.50;5054440;28;1901;-58
2023/08/27 06:35:25;;;;;;;;;;;;;;;17.36;52.60;100562.94;5054639;28;1237;-58
2023/08/27 06:37:51;;;;;;;;;;;;;;;17.34;52.63;100559.63;5054647;28;1245;-57
2023/08/27 06:40:16;;;;;;;;;;;;;;;17.34;52.75;100559.63;5055057;28;1440;-58
2023/08/27 06:42:42;;;;;;;;;;;;;;;17.27;52.63;100562.69;5053820;28;1269;-58
2023/08/27 06:45:08;;;;;;;;;;;;;;;17.30;52.72;100569.53;5055561;28;1182;-58
2023/08/27 06:47:33;;;;;;;;;;;;;;;17.38;52.82;100560.72;5064097;28;1390;-58
2023/08/27 06:49:59;;;;;;;;;;;;;;;17.37;52.66;100564.56;5078995;28;1201;-58
2023/08/27 06:52:24;;;;;;;;;;;;;;;17.36;52.85;100564.84;5046649;28;1963;-58
2023/08/27 06:54:50;;;;;;;;;;;;;;;17.34;53.13;100567.88;5050970;28;1138;-58
2023/08/27 06:57:15;;;;;;;;;;;;;;;17.31;53.35;100573.94;5049472;28;1293;-58
2023/08/27 06:59:42;;;;;;;;;;;;;;;17.36;53.04;100556.59;5054520;28;1269;-58
2023/08/27 07:02:09;;;;;;;;;;;;;;;17.32;53.16;100564.59;5054261;28;1273;-58
2023/08/27 07:04:35;;;;;;;;;;;;;;;17.34;53.29;100565.13;5054308;28;2010;-58
2023/08/27 07:07:00;;;;;;;;;;;;;;;17.34;53.01;100569.81;5052712;28;1305;-59
2023/08/27 07:09:27;;;;;;;;;;;;;;;17.47;53.02;100573.84;5054232;28;1372;-58
2023/08/27 07:11:53;;;;;;;;;;;;;;;17.33;53.09;100566.22;5056112;28;1902;-58
2023/08/27 07:14:18;;;;;;;;;;;;;;;17.31;53.48;100576.69;5038182;28;1101;-58
2023/08/27 07:16:44;;;;;;;;;;;;;;;17.30;53.62;100575.03;5055835;28;1134;-58
2023/08/27 07:19:09;;;;;;;;;;;;;;;17.42;53.26;100572.78;5071328;28;1101;-58
2023/08/27 07:21:35;;;;;;;;;;;;;;;17.35;53.34;100572.28;5048734;28;1304;-58
2023/08/27 07:24:00;;;;;;;;;;;;;;;17.37;53.52;100564.56;5042204;28;1155;-58
2023/08/27 07:26:26;;;;;;;;;;;;;;;17.37;53.36;100561.81;5061169;28;2336;-57
2023/08/27 07:28:52;;;;;;;;;;;;;;;17.38;53.53;100559.91;5060310;28;1708;-58
2023/08/27 07:31:18;;;;;;;;;;;;;;;17.37;53.48;100567.31;5057080;28;1894;-58
2023/08/27 07:33:43;;;;;;;;;;;;;;;17.34;53.54;100559.63;5060419;28;1795;-58
2023/08/27 07:36:09;;;;;;;;;;;;;;;17.36;53.76;100554.69;5067477;28;1787;-57
2023/08/27 07:38:38;;;;;;;;;;;;;;;17.33;53.63;100555.22;5057615;28;1816;-56
2023/08/27 07:41:03;;;;;;;;;;;;;;;17.34;53.88;100556.88;5067860;28;1843;-58
2023/08/27 07:43:29;;;;;;;;;;;;;;;17.38;53.68;100549.72;5063725;28;1162;-57
2023/08/27 07:45:55;;;;;;;;;;;;;;;17.36;54.07;100562.94;5059120;28;1218;-57
2023/08/27 07:48:20;;;;;;;;;;;;;;;17.35;54.01;100560.44;5057447;28;1865;-57
2023/08/27 07:50:46;;;;;;;;;;;;;;;17.36;53.79;100554.69;5058760;28;1906;-58
2023/08/27 07:53:13;;;;;;;;;;;;;;;17.33;54.00;100552.47;5056985;28;1293;-58
2023/08/27 07:55:39;;;;;;;;;;;;;;;17.35;53.95;100550.28;5057327;28;1237;-58
2023/08/27 07:58:05;;;;;;;;;;;;;;;17.37;54.14;100550.81;5058485;28;1174;-57
2023/08/27 08:00:30;;;;;;;;;;;;;;;17.35;53.95;100544.78;5057237;28;1284;-56
2023/08/27 08:02:57;;;;;;;;;;;;;;;17.36;54.11;100551.94;5056761;28;1693;-57
2023/08/27 08:05:23;;;;;;;;;;;;;;;17.41;54.21;100559.31;5058389;28;1214;-57
2023/08/27 08:07:49;;;;;;;;;;;;;;;17.40;54.14;100560.41;5061563;28;1175;-58
2023/08/27 08:10:15;;;;;;;;;;;;;;;17.41;54.14;100553.81;5060635;28;1154;-57
2023/08/27 08:12:41;;;;;;;;;;;;;;;17.35;54.29;100555.78;5063161;28;1957;-57
2023/08/27 08:15:06;;;;;;;;;;;;;;;17.39;54.51;100547.78;5058097;28;1166;-58
2023/08/27 08:17:32;;;;;;;;;;;;;;;17.36;54.58;100551.94;5058057;28;1245;-56
2023/08/27 08:19:57;;;;;;;;;;;;;;;17.33;54.45;100552.47;5060082;28;1090;-56
2023/08/27 08:22:23;;;;;;;;;;;;;;;17.45;54.12;100552.97;5061159;28;1146;-56
2023/08/27 08:24:48;;;;;;;;;;;;;;;17.36;54.42;100542.84;5069574;28;1125;-56
2023/08/27 08:27:14;;;;;;;;;;;;;;;17.44;54.22;100554.06;5058197;28;1123;-58
2023/08/27 08:29:39;;;;;;;;;;;;;;;17.42;54.63;100552.72;5058169;28;1209;-58
2023/08/27 08:32:05;;;;;;;;;;;;;;;17.49;54.28;100552.38;5069203;28;1910;-58
2023/08/27 08:34:30;;;;;;;;;;;;;;;17.41;54.55;100554.63;5060790;28;1058;-57
2023/08/27 08:36:56;;;;;;;;;;;;;;;17.39;54.50;100556.84;5068264;28;1159;-57
2023/08/27 08:39:24;;;;;;;;;;;;;;;17.42;54.65;100542.53;5064539;28;1151;-56
2023/08/27 08:42:10;;;;;;;;;;;;;;;17.50;54.28;100543.03;5067184;28;1736;-58
2023/08/27 08:44:43;;;;;;;;;;;;;;;17.47;54.37;100547.19;5061645;28;1371;-59
2023/08/27 08:47:08;;;;;;;;;;;;;;;17.40;54.58;100547.50;5058771;28;1035;-57
2023/08/27 08:49:34;;;;;;;;;;;;;;;17.47;54.56;100538.13;5040463;28;1253;-59
2023/08/27 08:52:00;;;;;;;;;;;;;;;17.47;54.45;100549.13;5039930;28;1914;-58
2023/08/27 08:54:26;;;;;;;;;;;;;;;17.45;54.70;100549.41;5049865;28;1046;-57
2023/08/27 08:56:52;;;;;;;;;;;;;;;17.39;54.80;100537.63;5051877;28;897;-58
2023/08/27 08:59:17;;;;;;;;;;;;;;;17.44;54.61;100545.81;5044334;28;1099;-57
2023/08/27 09:01:42;;;;;;;;;;;;;;;17.43;54.62;100546.94;5056551;28;1265;-59
2023/08/27 09:04:08;;;;;;;;;;;;;;;17.46;54.67;100545.56;5057649;28;1176;-58
2023/08/27 09:06:33;;;;;;;;;;;;;;;17.49;54.69;100552.38;5047649;28;1217;-59
2023/08/27 09:09:00;;;;;;;;;;;;;;;17.42;54.95;100556.28;5052654;28;1098;-58
2023/08/27 09:11:25;;;;;;;;;;;;;;;17.43;54.73;100552.44;5054616;28;2231;-59
2023/08/27 09:13:51;;;;;;;;;;;;;;;17.45;54.96;100547.47;5055966;28;1081;-59
2023/08/27 09:16:16;;;;;;;;;;;;;;;17.48;54.70;100559.00;5046624;28;1036;-61
2023/08/27 09:18:42;;;;;;;;;;;;;;;17.43;54.74;100551.59;5051038;28;1106;-61
2023/08/27 09:21:07;;;;;;;;;;;;;;;17.51;54.60;100552.94;5052457;28;882;-59
2023/08/27 09:23:37;;;;;;;;;;;;;;;17.43;54.77;100555.19;5039989;28;1051;-58
2023/08/27 09:26:03;;;;;;;;;;;;;;;17.43;54.94;100541.44;5047722;28;1078;-58
2023/08/27 09:28:29;;;;;;;;;;;;;;;17.42;55.03;100548.03;5039242;28;1136;-59
2023/08/27 09:30:54;;;;;;;;;;;;;;;17.45;54.87;100533.72;5056109;28;1918;-58
2023/08/27 09:33:21;;;;;;;;;;;;;;;17.39;54.93;100545.88;5054607;28;917;-58
2023/08/27 09:35:48;;;;;;;;;;;;;;;17.43;54.87;100535.09;5054382;28;1016;-58
2023/08/27 09:38:14;;;;;;;;;;;;;;;17.44;54.96;100543.06;5044161;28;1056;-58
2023/08/27 09:40:39;;;;;;;;;;;;;;;17.48;54.67;100548.81;5043425;28;1770;-58
2023/08/27 09:43:08;;;;;;;;;;;;;;;17.43;55.08;100549.69;5048652;28;1489;-58
2023/08/27 09:45:34;;;;;;;;;;;;;;;17.53;54.54;100542.47;5053319;28;1002;-58
2023/08/27 09:48:00;;;;;;;;;;;;;;;17.45;55.04;100538.41;5045578;28;1012;-58
2023/08/27 09:50:25;;;;;;;;;;;;;;;17.51;54.84;100541.94;5043548;28;1182;-58
2023/08/27 09:52:51;;;;;;;;;;;;;;;17.50;54.85;100540.28;5022889;28;2057;-58
2023/08/27 09:55:16;;;;;;;;;;;;;;;17.45;55.12;100541.16;5034403;28;1098;-58
2023/08/27 09:57:49;;;;;;;;;;;;;;;17.44;55.18;100537.56;5035939;28;968;-58
2023/08/27 10:00:15;;;;;;;;;;;;;;;17.48;55.13;100540.56;5019619;28;1100;-59
2023/08/27 10:02:42;;;;;;;;;;;;;;;17.41;55.30;100529.91;5026849;28;997;-58
2023/08/27 10:05:08;;;;;;;;;;;;;;;17.63;54.46;100534.16;5033315;28;1038;-59
2023/08/27 10:07:33;;;;;;;;;;;;;;;17.51;54.81;100541.94;5016959;28;1102;-59
2023/08/27 10:09:59;;;;;;;;;;;;;;;17.51;55.04;100542.75;5019619;28;1159;-59
2023/08/27 10:12:25;;;;;;;;;;;;;;;17.51;54.87;100550.19;5027351;28;2462;-59
2023/08/27 10:14:50;;;;;;;;;;;;;;;17.50;55.09;100548.53;5016334;28;1166;-59
2023/08/27 10:17:16;;;;;;;;;;;;;;;17.52;54.72;100536.16;5015498;28;1067;-59
2023/08/27 10:19:41;;;;;;;;;;;;;;;17.48;54.94;100535.09;5016966;28;1079;-60
2023/08/27 10:22:07;;;;;;;;;;;;;;;17.53;54.72;100539.72;5032571;28;1176;-59
2023/08/27 10:24:33;;;;;;;;;;;;;;;17.53;54.73;100537.81;5017121;28;1202;-59
2023/08/27 10:26:59;;;;;;;;;;;;;;;17.53;54.87;100534.22;5016485;28;1245;-61
2023/08/27 10:29:25;;;;;;;;;;;;;;;17.53;54.96;100536.97;5030876;28;1203;-59
2023/08/27 10:31:51;;;;;;;;;;;;;;;17.49;55.00;100528.47;5034106;28;1906;-59
2023/08/27 10:34:16;;;;;;;;;;;;;;;17.58;54.59;100534.19;5018814;28;1290;-59
2023/08/27 10:36:42;;;;;;;;;;;;;;;17.50;54.90;100529.28;5015454;28;1202;-59
2023/08/27 10:39:07;;;;;;;;;;;;;;;17.61;54.27;100531.69;5014524;28;1297;-59
2023/08/27 10:41:34;;;;;;;;;;;;;;;17.49;54.79;100524.91;5017563;28;2473;-59
2023/08/27 10:44:00;;;;;;;;;;;;;;;17.51;54.70;100530.94;5017599;28;1241;-59
2023/08/27 10:46:25;;;;;;;;;;;;;;;17.48;54.90;100523.28;5018184;28;1325;-59
2023/08/27 10:48:51;;;;;;;;;;;;;;;17.46;54.75;100523.56;5024610;28;1048;-58
2023/08/27 10:51:18;;;;;;;;;;;;;;;17.55;54.63;100530.06;5028086;28;1976;-58
2023/08/27 10:53:49;;;;;;;;;;;;;;;17.45;54.85;100525.47;5067580;28;1134;-57
2023/08/27 10:56:34;;;;;;;;;;;;;;;17.45;55.01;100519.16;5068464;28;1071;-58
2023/08/27 10:59:00;;;;;;;;;;;;;;;17.52;54.62;100522.41;5067557;28;1024;-58
2023/08/27 11:01:26;;;;;;;;;;;;;;;17.44;54.71;100523.81;5056902;28;1071;-58
2023/08/27 11:03:57;;;;;;;;;;;;;;;17.48;54.77;100517.78;5055586;28;1107;-56
2023/08/27 11:06:33;;;;;;;;;;;;;;;17.56;54.53;100514.41;5061709;28;1054;-56
2023/08/27 11:08:59;;;;;;;;;;;;;;;17.44;54.69;100509.28;5069692;28;1147;-57
2023/08/27 11:11:25;;;;;;;;;;;;;;;17.47;54.86;100505.13;5068401;28;1973;-59
2023/08/27 11:14:11;;;;;;;;;;;;;;;17.47;54.98;100507.88;5069260;28;1099;-59
2023/08/27 11:16:47;;;;;;;;;;;;;;;17.51;54.66;100507.00;5055406;28;1654;-57
2023/08/27 11:19:13;;;;;;;;;;;;;;;17.52;54.89;100505.09;5060314;28;1126;-59
2023/08/27 11:21:38;;;;;;;;;;;;;;;17.48;54.65;100504.84;5074525;28;987;-58
2023/08/27 11:24:16;;;;;;;;;;;;;;;17.50;54.76;100490.81;5075369;28;1162;-58
2023/08/27 11:26:42;;;;;;;;;;;;;;;17.51;54.66;100492.47;5075133;28;1205;-58
2023/08/27 11:29:08;;;;;;;;;;;;;;;17.50;55.02;100496.31;5074879;28;1162;-59
2023/08/27 11:31:33;;;;;;;;;;;;;;;17.52;54.74;100494.91;5075199;28;1913;-58
2023/08/27 11:34:01;;;;;;;;;;;;;;;17.50;54.81;100497.16;5063075;28;1305;-59
2023/08/27 11:36:27;;;;;;;;;;;;;;;17.48;54.80;100498.53;5054588;28;1182;-59
2023/08/27 11:38:59;;;;;;;;;;;;;;;17.47;55.02;100485.88;5075394;28;1217;-59
2023/08/27 11:41:25;;;;;;;;;;;;;;;17.45;54.93;100484.25;5070237;28;2211;-59
2023/08/27 11:43:53;;;;;;;;;;;;;;;17.56;54.81;100487.75;5054856;28;1273;-58
2023/08/27 11:46:25;;;;;;;;;;;;;;;17.47;54.98;100485.88;5057918;28;1185;-59
2023/08/27 11:48:50;;;;;;;;;;;;;;;17.59;54.48;100473.41;5072817;28;1155;-59
2023/08/27 11:51:16;;;;;;;;;;;;;;;17.47;55.08;100481.19;5074386;28;1968;-59
2023/08/27 11:53:44;;;;;;;;;;;;;;;17.48;54.82;100469.09;5074617;28;1257;-60
2023/08/27 11:56:11;;;;;;;;;;;;;;;17.53;55.01;100471.81;5075099;28;1150;-57
2023/08/27 11:58:39;;;;;;;;;;;;;;;17.51;54.95;100465.78;5058616;28;1250;-61
2023/08/27 12:01:05;;;;;;;;;;;;;;;17.55;54.60;100458.59;5072413;28;1080;-59
2023/08/27 12:03:31;;;;;;;;;;;;;;;17.53;54.75;100458.06;5075279;28;1313;-59
2023/08/27 12:05:56;;;;;;;;;;;;;;;17.51;54.96;100459.47;5074777;28;1166;-60
2023/08/27 12:08:22;;;;;;;;;;;;;;;17.47;54.95;100452.91;5074535;28;1190;-60
2023/08/27 12:10:48;;;;;;;;;;;;;;;17.48;54.98;100460.06;5060143;28;1971;-58
2023/08/27 12:13:13;;;;;;;;;;;;;;;17.49;54.92;100464.41;5056804;28;1910;-58
2023/08/27 12:15:39;;;;;;;;;;;;;;;17.50;54.71;100458.66;5058166;28;1245;-61
2023/08/27 12:18:10;;;;;;;;;;;;;;;17.49;54.78;100456.16;5056642;28;1222;-60
2023/08/27 12:20:37;;;;;;;;;;;;;;;17.48;54.73;100460.06;5058355;28;1241;-60
2023/08/27 12:23:12;;;;;;;;;;;;;;;17.56;54.45;100456.69;5061100;28;1206;-59
2023/08/27 12:25:44;;;;;;;;;;;;;;;17.48;54.76;100454.56;5058312;28;1261;-57
2023/08/27 12:28:09;;;;;;;;;;;;;;;17.61;54.38;100453.88;5071079;28;1123;-58
2023/08/27 12:30:36;;;;;;;;;;;;;;;17.48;55.00;100447.13;5058184;28;1234;-57
2023/08/27 12:33:01;;;;;;;;;;;;;;;17.51;54.60;100448.47;5060669;28;1905;-57
2023/08/27 12:35:30;;;;;;;;;;;;;;;17.53;54.82;100446.25;5057892;28;1261;-59
2023/08/27 12:37:55;;;;;;;;;;;;;;;17.48;54.93;100443.56;5057945;28;1328;-59
2023/08/27 12:40:21;;;;;;;;;;;;;;;17.50;54.94;100447.66;5057661;28;1146;-60
2023/08/27 12:42:47;;;;;;;;;;;;;;;17.47;54.93;100439.97;5060270;28;2602;-59